Time;durP1;ratioP1;P1;durP2;ratioP2;P2;SDS_P1;SDS_P2;PMS_P1;PMS_P2;Temp;Humidity;BMP_temperature;BMP_pressure;BME280_temperature;BME280_humidity;BME280_pressure;Samples;Min_cycle;Max_cycle;Signal;HPM_P1;HPM_P2
2023/10/18 00:02:25;;;;;;;6.32;2.92;;;6.70;99.90;;;;;;4251843;27;20061;-81
2023/10/18 00:04:28;;;;;;;5.40;2.30;;;6.70;99.90;;;;;;4251305;27;20122;-81
2023/10/18 00:06:29;;;;;;;5.50;2.30;;;7.30;99.90;;;;;;4251279;27;20448;-81
2023/10/18 00:08:29;;;;;;;5.60;2.47;;;8.00;99.90;;;;;;4251483;27;20031;-81
2023/10/18 00:10:33;;;;;;;4.38;2.60;;;6.70;99.90;;;;;;4251576;27;20039;-81
2023/10/18 00:12:34;;;;;;;5.60;3.17;;;7.30;99.90;;;;;;4251603;27;20045;-82
2023/10/18 00:14:35;;;;;;;5.38;2.83;;;7.80;99.90;;;;;;4250944;27;20051;-82
2023/10/18 00:16:36;;;;;;;4.80;2.40;;;6.60;99.90;;;;;;4251476;27;20388;-81
2023/10/18 00:18:37;;;;;;;6.32;2.88;;;7.40;99.90;;;;;;4251761;27;20126;-82
2023/10/18 00:20:37;;;;;;;6.72;2.85;;;7.80;99.90;;;;;;4251460;27;20094;-82
2023/10/18 00:22:38;;;;;;;5.75;2.53;;;6.60;99.90;;;;;;4233178;28;20131;-82
2023/10/18 00:24:40;;;;;;;5.78;2.45;;;6.90;99.90;;;;;;4232854;28;20565;-81
2023/10/18 00:26:42;;;;;;;8.52;3.28;;;6.90;99.90;;;;;;4232697;28;20058;-82
2023/10/18 00:28:43;;;;;;;8.82;3.20;;;7.60;99.90;;;;;;4251540;27;20043;-82
2023/10/18 00:30:43;;;;;;;3.72;2.30;;;6.50;99.90;;;;;;4251347;27;20031;-81
2023/10/18 00:32:44;;;;;;;5.05;3.00;;;7.20;99.90;;;;;;4250864;27;20051;-81
2023/10/18 00:34:45;;;;;;;7.07;2.78;;;7.20;99.90;;;;;;4250803;27;20116;-81
2023/10/18 00:36:46;;;;;;;5.90;2.95;;;6.50;99.90;;;;;;4232529;28;20084;-81
2023/10/18 00:38:48;;;;;;;6.07;2.72;;;6.50;99.90;;;;;;4251277;27;20043;-81
2023/10/18 00:40:51;;;;;;;6.85;3.30;;;7.30;99.90;;;;;;4236766;27;20050;-82
2023/10/18 00:42:52;;;;;;;7.45;2.92;;;6.50;99.90;;;;;;4234097;28;20074;-82
2023/10/18 00:45:08;;;;;;;7.75;3.65;;;7.10;99.90;;;;;;4233806;28;20495;-81
2023/10/18 00:47:13;;;;;;;5.07;3.70;;;7.40;99.90;;;;;;4234015;28;20500;-81
2023/10/18 00:49:14;;;;;;;5.28;3.25;;;7.40;99.90;;;;;;4233639;28;20055;-82
2023/10/18 00:51:18;;;;;;;6.53;3.35;;;7.30;99.90;;;;;;4233623;28;20403;-82
2023/10/18 00:53:20;;;;;;;6.00;3.75;;;7.10;99.90;;;;;;4215715;28;20043;-82
2023/10/18 00:55:20;;;;;;;7.78;3.60;;;6.40;99.90;;;;;;4233870;28;20498;-82
2023/10/18 00:57:26;;;;;;;9.68;4.07;;;7.40;99.90;;;;;;4233266;28;20118;-82
2023/10/18 00:59:28;;;;;;;7.43;3.95;;;7.10;99.90;;;;;;4232228;28;20558;-82
2023/10/18 01:01:30;;;;;;;9.05;4.30;;;6.30;99.90;;;;;;4250607;27;20039;-82
2023/10/18 01:03:38;;;;;;;9.63;4.25;;;6.40;99.90;;;;;;4250766;27;20078;-82
2023/10/18 01:05:57;;;;;;;8.02;3.78;;;7.40;99.90;;;;;;4232225;28;20519;-82
2023/10/18 01:07:59;;;;;;;9.15;4.13;;;7.10;99.90;;;;;;4250406;27;20092;-82
2023/10/18 01:09:59;;;;;;;9.27;4.40;;;6.30;99.90;;;;;;4250497;27;20475;-82
2023/10/18 01:12:00;;;;;;;16.67;5.07;;;6.80;99.90;;;;;;4250583;27;20043;-82
2023/10/18 01:14:01;;;;;;;10.82;4.60;;;7.60;99.90;;;;;;4232321;28;20055;-82
2023/10/18 01:16:06;;;;;;;13.65;5.10;;;6.60;99.90;;;;;;4250686;27;20080;-82
2023/10/18 01:18:07;;;;;;;9.23;4.53;;;6.30;99.90;;;;;;4250384;27;20050;-82
2023/10/18 01:20:33;;;;;;;12.48;4.80;;;7.60;99.90;;;;;;4232028;28;20107;-83
2023/10/18 01:22:30;;;;;;;10.25;4.60;;;6.20;99.90;;;;;;4249571;27;20051;-83
2023/10/18 01:24:35;;;;;;;12.18;5.53;;;7.10;99.90;;;;;;4250562;27;20109;-82
2023/10/18 01:26:38;;;;;;;12.38;6.18;;;6.80;99.90;;;;;;4250589;27;20043;-83
2023/10/18 01:28:39;;;;;;;13.05;5.30;;;6.60;99.90;;;;;;4250706;27;20114;-83
2023/10/18 01:30:40;;;;;;;11.48;5.47;;;7.20;99.90;;;;;;4231971;28;20048;-82
2023/10/18 01:32:41;;;;;;;13.05;6.15;;;7.20;99.90;;;;;;4247226;27;20515;-82
2023/10/18 01:34:42;;;;;;;14.07;6.07;;;8.20;99.90;;;;;;4236597;27;20039;-83
2023/10/18 01:36:42;;;;;;;12.45;6.20;;;7.20;99.90;;;;;;4232117;28;20130;-83
2023/10/18 01:38:48;;;;;;;14.00;6.13;;;6.60;99.90;;;;;;4245704;27;20039;-83
2023/10/18 01:40:52;;;;;;;11.95;6.93;;;6.90;99.90;;;;;;4214756;28;20097;-83
2023/10/18 01:42:56;;;;;;;13.20;6.10;;;6.10;99.90;;;;;;4233062;27;20043;-82
2023/10/18 01:44:57;;;;;;;15.27;6.40;;;7.30;99.90;;;;;;4214998;28;20040;-83
2023/10/18 01:47:06;;;;;;;11.02;5.90;;;6.80;99.90;;;;;;4215072;28;20078;-83
2023/10/18 01:49:07;;;;;;;;;;;7.50;99.90;;;;;;4233499;28;20039;-83
2023/10/18 01:51:09;;;;;;;14.20;6.75;;;6.10;99.90;;;;;;4232496;28;20027;-82
2023/10/18 01:53:16;;;;;;;17.30;6.85;;;7.00;99.90;;;;;;4232491;28;20047;-83
2023/10/18 01:55:17;;;;;;;14.55;6.65;;;6.90;99.90;;;;;;4214849;28;20055;-83
2023/10/18 01:57:18;;;;;;;13.48;6.43;;;6.80;99.90;;;;;;4233077;28;20048;-83
2023/10/18 01:59:19;;;;;;;11.95;6.55;;;6.40;99.90;;;;;;4233187;28;20154;-83
2023/10/18 02:01:20;;;;;;;12.45;5.95;;;6.60;99.90;;;;;;4232771;28;20044;-83
2023/10/18 02:03:21;;;;;;;16.13;6.40;;;6.00;99.90;;;;;;4232252;28;20040;-83
2023/10/18 02:05:26;;;;;;;14.02;6.07;;;6.00;99.90;;;;;;4233078;28;20043;-83
2023/10/18 02:07:27;;;;;;;10.65;5.47;;;6.80;99.90;;;;;;4233065;28;20032;-83
2023/10/18 02:09:52;;;;;;;10.40;5.63;;;6.00;99.90;;;;;;4215293;28;20044;-82
2023/10/18 02:11:54;;;;;;;9.05;5.10;;;6.00;99.90;;;;;;4232942;28;20074;-83
2023/10/18 02:13:55;;;;;;;7.88;4.75;;;5.90;99.90;;;;;;4233169;28;20507;-83
2023/10/18 02:15:57;;;;;;;10.60;5.47;;;5.90;99.90;;;;;;4232586;28;20043;-83
2023/10/18 02:17:58;;;;;;;9.80;5.72;;;5.90;99.90;;;;;;4232696;28;20051;-83
2023/10/18 02:20:00;;;;;;;12.32;5.93;;;7.40;99.90;;;;;;4235756;27;20562;-82
2023/10/18 02:22:01;;;;;;;10.35;5.68;;;6.70;99.90;;;;;;4249329;27;20096;-83
2023/10/18 02:24:01;;;;;;;10.93;5.53;;;7.00;99.90;;;;;;4249537;27;20483;-82
2023/10/18 02:26:53;;;;;;;9.88;5.13;;;5.80;99.90;;;;;;4249104;27;20476;-83
2023/10/18 02:28:25;;;;;;;12.90;5.72;;;7.40;99.90;;;;;;4234982;27;20095;-83
2023/10/18 02:30:26;;;;;;;11.85;5.28;;;6.20;99.90;;;;;;4231788;28;20140;-83
2023/10/18 02:32:34;;;;;;;9.68;5.57;;;7.00;99.90;;;;;;4231261;28;20043;-83
2023/10/18 02:34:38;;;;;;;10.02;5.28;;;6.10;99.90;;;;;;4231269;28;20052;-83
2023/10/18 02:36:39;;;;;;;10.25;4.78;;;6.40;99.90;;;;;;4231506;28;20923;-83
2023/10/18 02:38:41;;;;;;;9.38;5.22;;;7.00;99.90;;;;;;4249062;27;20047;-83
2023/10/18 02:40:42;;;;;;;10.25;4.72;;;6.90;99.90;;;;;;4231324;28;20050;-83
2023/10/18 02:42:42;;;;;;;8.32;5.07;;;7.40;99.90;;;;;;4248049;27;20039;-83
2023/10/18 02:44:44;;;;;;;12.07;4.53;;;7.20;99.90;;;;;;4214579;28;20567;-83
2023/10/18 02:46:47;;;;;;;8.23;4.53;;;6.60;99.90;;;;;;4231969;28;20055;-83
2023/10/18 02:48:50;;;;;;;10.18;5.50;;;4.60;99.90;;;;;;4232721;28;20052;-83
2023/10/18 02:50:54;;;;;;;9.38;4.70;;;5.70;99.90;;;;;;4232504;28;20395;-83
2023/10/18 02:52:55;;;;;;;10.40;4.57;;;6.80;99.90;;;;;;4232236;28;20523;-83
2023/10/18 02:54:57;;;;;;;9.55;4.43;;;6.50;99.90;;;;;;4232699;28;20040;-83
2023/10/18 02:56:59;;;;;;;8.50;4.70;;;5.80;99.90;;;;;;4232451;28;20038;-82
2023/10/18 02:59:06;;;;;;;10.35;5.05;;;6.50;99.90;;;;;;4232544;28;20040;-82
2023/10/18 03:01:09;;;;;;;9.25;4.82;;;6.30;99.90;;;;;;4241798;28;20074;-82
2023/10/18 03:03:09;;;;;;;8.43;4.43;;;7.10;99.90;;;;;;4230850;28;20055;-83
2023/10/18 03:05:11;;;;;;;8.80;4.93;;;6.60;99.90;;;;;;4231190;28;20081;-83
2023/10/18 03:07:15;;;;;;;8.70;4.55;;;5.60;99.90;;;;;;4249514;28;20504;-83
2023/10/18 03:11:36;;;;;;;7.97;4.55;;;7.10;99.90;;;;;;4249951;28;20059;-83
2023/10/18 03:13:38;;;;;;;10.32;4.53;;;5.50;99.90;;;;;;4249478;27;20043;-82
2023/10/18 03:15:54;;;;;;;8.73;4.90;;;7.20;99.90;;;;;;4253053;27;20111;-83
2023/10/18 03:17:56;;;;;;;8.15;4.88;;;7.10;99.90;;;;;;4252949;27;20054;-82
2023/10/18 03:19:57;;;;;;;11.18;5.05;;;6.70;99.90;;;;;;4234673;28;20148;-82
2023/10/18 03:21:57;;;;;;;11.38;4.35;;;5.50;99.90;;;;;;4234603;28;20514;-83
2023/10/18 03:23:58;;;;;;;9.57;4.38;;;7.10;99.90;;;;;;4252786;27;20043;-83
2023/10/18 03:26:03;;;;;;;7.85;4.60;;;6.40;99.90;;;;;;4252705;27;20108;-82
2023/10/18 03:28:04;;;;;;;8.57;4.63;;;5.90;99.90;;;;;;4234835;28;20124;-81
2023/10/18 03:30:17;;;;;;;7.93;4.22;;;5.50;99.90;;;;;;4235011;28;20138;-81
2023/10/18 03:32:21;;;;;;;10.25;4.90;;;5.40;99.90;;;;;;4234862;28;20082;-81
2023/10/18 03:34:22;;;;;;;9.73;4.70;;;5.50;99.90;;;;;;4252932;27;20051;-81
2023/10/18 03:36:25;;;;;;;9.23;4.38;;;7.30;99.90;;;;;;4253234;27;20089;-81
2023/10/18 03:38:30;;;;;;;8.32;4.70;;;6.00;99.90;;;;;;4252674;27;20407;-81
2023/10/18 03:40:36;;;;;;;10.60;4.93;;;6.90;99.90;;;;;;4252297;27;20479;-82
2023/10/18 03:42:44;;;;;;;10.52;4.97;;;5.40;99.90;;;;;;4252259;27;20043;-82
2023/10/18 03:44:46;;;;;;;7.88;4.32;;;6.00;99.90;;;;;;4251378;27;20546;-82
2023/10/18 03:46:48;;;;;;;10.02;4.60;;;6.60;99.90;;;;;;4252495;27;20047;-82
2023/10/18 03:48:54;;;;;;;7.93;4.55;;;6.80;99.90;;;;;;4234647;28;20118;-82
2023/10/18 03:51:00;;;;;;;8.52;5.10;;;6.40;99.90;;;;;;4233569;28;20074;-82
2023/10/18 03:53:00;;;;;;;9.30;5.32;;;6.60;99.90;;;;;;4235277;28;20115;-82
2023/10/18 03:55:05;;;;;;;12.00;5.18;;;7.20;99.90;;;;;;4235905;28;20047;-82
2023/10/18 03:57:07;;;;;;;12.55;5.15;;;5.40;99.90;;;;;;4235420;28;20036;-82
2023/10/18 03:59:24;;;;;;;13.35;6.32;;;6.40;99.90;;;;;;4233794;28;20047;-82
2023/10/18 04:01:26;;;;;;;13.35;5.80;;;6.40;99.90;;;;;;4235520;28;20054;-81
2023/10/18 04:03:29;;;;;;;13.18;6.35;;;6.60;99.90;;;;;;4235217;28;20581;-81
2023/10/18 04:07:31;;;;;;;16.55;7.72;;;7.00;99.90;;;;;;4235179;28;20047;-81
2023/10/18 04:09:32;;;;;;;12.10;6.57;;;6.10;99.90;;;;;;4234157;28;20035;-81
2023/10/18 04:11:33;;;;;;;12.07;6.80;;;7.60;99.90;;;;;;4235748;28;20184;-82
2023/10/18 04:13:36;;;;;;;12.57;6.25;;;7.30;99.90;;;;;;4235328;28;20043;-82
2023/10/18 04:15:41;;;;;;;17.08;7.22;;;5.40;99.90;;;;;;4235288;28;20483;-81
2023/10/18 04:17:43;;;;;;;13.77;6.55;;;6.20;99.90;;;;;;4235590;28;20099;-81
2023/10/18 04:19:44;;;;;;;12.77;6.50;;;7.20;99.90;;;;;;4235181;28;20083;-82
2023/10/18 04:21:51;;;;;;;15.18;6.80;;;7.40;99.90;;;;;;4235096;28;20506;-82
2023/10/18 04:23:56;;;;;;;11.95;6.45;;;6.50;99.90;;;;;;4234665;28;20113;-82
2023/10/18 04:26:10;;;;;;;13.80;7.57;;;6.60;99.90;;;;;;4234422;28;20079;-82
2023/10/18 04:28:12;;;;;;;12.27;6.07;;;7.30;99.90;;;;;;4235008;28;20048;-82
2023/10/18 04:30:16;;;;;;;13.30;7.05;;;5.10;99.90;;;;;;4234261;28;20115;-82
2023/10/18 04:32:20;;;;;;;12.90;6.72;;;5.10;99.90;;;;;;4234995;28;20191;-82
2023/10/18 04:34:21;;;;;;;13.07;6.85;;;6.00;99.90;;;;;;4234862;28;20048;-82
2023/10/18 04:36:23;;;;;;;12.38;7.35;;;6.20;99.90;;;;;;4234445;28;20040;-82
2023/10/18 04:38:30;;;;;;;13.90;6.82;;;6.70;99.90;;;;;;4234503;27;20122;-82
2023/10/18 04:40:34;;;;;;;13.95;6.35;;;6.40;99.90;;;;;;4234713;28;20053;-82
2023/10/18 04:42:37;;;;;;;12.95;7.13;;;6.30;99.90;;;;;;4234843;28;20488;-82
2023/10/18 04:44:40;;;;;;;16.35;7.75;;;5.80;99.90;;;;;;4233551;28;20454;-82
2023/10/18 04:46:43;;;;;;;13.52;7.05;;;6.60;99.90;;;;;;4218467;28;20040;-82
2023/10/18 04:50:52;;;;;;;13.18;6.80;;;6.30;99.90;;;;;;4228971;28;20048;-82
2023/10/18 04:52:57;;;;;;;14.32;7.68;;;6.00;99.90;;;;;;4233917;28;20056;-82
2023/10/18 04:55:04;;;;;;;14.80;6.93;;;5.60;99.90;;;;;;4234036;28;20079;-82
2023/10/18 04:57:06;;;;;;;12.90;6.88;;;5.10;99.90;;;;;;4234792;28;20146;-82
2023/10/18 04:59:11;;;;;;;13.45;7.50;;;5.90;99.90;;;;;;4216812;28;20048;-82
2023/10/18 05:01:13;;;;;;;14.68;8.45;;;5.20;99.90;;;;;;4242068;27;20502;-82
2023/10/18 05:03:17;;;;;;;16.70;7.68;;;6.10;99.90;;;;;;4250545;27;20039;-82
2023/10/18 05:05:18;;;;;;;15.07;8.05;;;6.10;99.90;;;;;;4251187;27;20035;-82
2023/10/18 05:07:19;;;;;;;16.23;7.57;;;5.10;99.90;;;;;;4250928;27;20118;-82
2023/10/18 05:11:47;;;;;;;15.57;7.45;;;6.80;99.90;;;;;;4250974;27;20054;-82
2023/10/18 05:13:48;;;;;;;13.82;7.03;;;5.10;99.90;;;;;;4251626;27;20513;-82
2023/10/18 05:15:51;;;;;;;15.52;7.90;;;7.00;99.90;;;;;;4251849;27;20498;-82
2023/10/18 05:17:58;;;;;;;13.85;7.32;;;6.10;99.90;;;;;;4251695;27;20042;-82
2023/10/18 05:20:46;;;;;;;17.92;7.95;;;6.30;99.90;;;;;;4250863;27;20495;-82
2023/10/18 05:22:24;;;;;;;15.07;8.50;;;5.00;99.90;;;;;;4222127;28;20051;-82
2023/10/18 05:24:25;;;;;;;15.48;7.97;;;6.00;99.90;;;;;;4250855;27;20548;-82
2023/10/18 05:26:32;;;;;;;16.40;8.20;;;6.00;99.90;;;;;;4233428;28;20047;-82
2023/10/18 05:29:17;;;;;;;17.00;8.55;;;5.00;99.90;;;;;;4251297;27;20074;-82
2023/10/18 05:33:15;;;;;;;17.65;8.38;;;5.90;99.90;;;;;;4235811;27;20048;-82
2023/10/18 05:35:28;;;;;;;17.42;8.70;;;5.00;99.90;;;;;;4234249;28;20050;-82
2023/10/18 05:37:32;;;;;;;18.67;8.48;;;6.10;99.90;;;;;;4239154;28;20043;-82
2023/10/18 05:39:49;;;;;;;21.93;8.87;;;5.00;99.90;;;;;;4239433;28;20055;-81
2023/10/18 05:41:51;;;;;;;14.50;8.20;;;5.00;99.90;;;;;;4234960;28;20072;-82
2023/10/18 05:43:52;;;;;;;17.33;8.52;;;5.00;99.90;;;;;;4234353;28;20036;-83
2023/10/18 05:46:00;;;;;;;17.25;8.93;;;5.00;99.90;;;;;;4236550;27;20047;-82
2023/10/18 05:48:12;;;;;;;14.18;8.10;;;5.00;99.90;;;;;;4251611;27;20047;-83
2023/10/18 05:50:13;;;;;;;16.88;8.23;;;5.00;99.90;;;;;;4232016;28;20600;-82
2023/10/18 05:54:15;;;;;;;18.52;8.77;;;5.10;99.90;;;;;;4233622;28;20047;-82
2023/10/18 05:56:21;;;;;;;18.77;8.80;;;5.00;99.90;;;;;;4233634;28;20040;-82
2023/10/18 05:58:28;;;;;;;18.25;9.00;;;6.10;99.90;;;;;;4233818;28;20100;-82
2023/10/18 06:00:32;;;;;;;18.10;9.60;;;5.80;99.90;;;;;;4233032;28;20075;-81
2023/10/18 06:02:33;;;;;;;18.63;9.27;;;5.90;99.90;;;;;;4233400;28;20071;-81
2023/10/18 06:04:38;;;;;;;23.50;9.25;;;4.60;99.90;;;;;;4232760;28;20043;-80
2023/10/18 06:06:39;;;;;;;18.42;9.05;;;5.90;99.90;;;;;;4232912;28;20043;-80
2023/10/18 06:08:41;;;;;;;18.67;8.82;;;6.10;99.90;;;;;;4232868;28;20043;-80
2023/10/18 06:10:42;;;;;;;21.17;9.55;;;5.40;99.90;;;;;;4232640;28;20047;-83
2023/10/18 06:12:55;;;;;;;16.58;9.00;;;6.00;99.90;;;;;;4232949;28;20054;-80
2023/10/18 06:15:10;;;;;;;19.20;10.25;;;5.00;99.90;;;;;;4232894;28;20097;-80
2023/10/18 06:17:19;;;;;;;17.85;9.70;;;5.00;99.90;;;;;;4232774;28;20043;-81
2023/10/18 06:19:27;;;;;;;18.58;8.95;;;5.80;99.90;;;;;;4232965;28;20156;-81
2023/10/18 06:21:28;;;;;;;18.42;9.32;;;5.70;99.90;;;;;;4233302;28;20048;-80
2023/10/18 06:25:49;;;;;;;18.30;9.70;;;5.50;99.90;;;;;;4242083;28;20051;-81
2023/10/18 06:27:53;;;;;;;20.13;10.27;;;5.10;99.90;;;;;;4233361;28;20043;-81
2023/10/18 06:29:54;;;;;;;21.15;10.57;;;5.10;99.90;;;;;;4233445;28;20059;-81
2023/10/18 06:31:56;;;;;;;21.52;10.27;;;5.40;99.90;;;;;;4233444;28;20044;-81
2023/10/18 06:34:03;;;;;;;20.20;10.10;;;6.10;99.90;;;;;;4233030;28;20415;-81
2023/10/18 06:36:12;;;;;;;20.83;10.07;;;5.70;99.90;;;;;;4233055;28;20052;-81
2023/10/18 06:38:17;;;;;;;21.53;9.87;;;5.20;99.90;;;;;;4233020;28;20043;-81
2023/10/18 06:40:40;;;;;;;20.23;9.60;;;5.80;99.90;;;;;;4231674;28;20476;-81
2023/10/18 06:42:43;;;;;;;18.80;9.27;;;5.90;99.90;;;;;;4233584;28;20049;-81
2023/10/18 06:44:46;;;;;;;23.90;10.85;;;6.20;99.90;;;;;;4231656;28;20154;-81
2023/10/18 06:46:47;;;;;;;22.40;10.60;;;6.20;99.90;;;;;;4218109;28;20400;-81
2023/10/18 06:48:50;;;;;;;19.88;9.88;;;6.30;99.90;;;;;;4214756;28;20050;-81
2023/10/18 06:50:53;;;;;;;22.33;10.23;;;6.10;99.90;;;;;;4225883;28;20070;-81
2023/10/18 06:52:55;;;;;;;20.15;9.43;;;6.30;99.90;;;;;;4231951;28;20106;-81
2023/10/18 06:54:56;;;;;;;20.83;9.70;;;5.80;99.90;;;;;;4232276;28;20488;-81
2023/10/18 06:56:58;;;;;;;22.48;11.27;;;6.40;99.90;;;;;;4232202;28;20039;-81
2023/10/18 06:59:07;;;;;;;19.50;9.35;;;5.40;99.90;;;;;;4231517;28;20059;-81
2023/10/18 07:01:14;;;;;;;21.55;9.50;;;5.40;99.90;;;;;;4214367;28;20052;-81
2023/10/18 07:03:24;;;;;;;24.25;10.38;;;6.50;99.90;;;;;;4234977;28;20039;-81
2023/10/18 07:05:26;;;;;;;19.63;9.45;;;5.50;99.90;;;;;;4233007;28;20043;-82
2023/10/18 07:07:29;;;;;;;20.60;9.60;;;5.70;99.90;;;;;;4248524;28;20047;-82
2023/10/18 07:09:31;;;;;;;19.52;10.05;;;5.60;99.90;;;;;;4220637;28;20376;-81
2023/10/18 07:11:32;;;;;;;19.70;9.40;;;5.60;99.90;;;;;;4239872;28;20078;-82
2023/10/18 07:13:48;;;;;;;18.88;10.07;;;5.90;99.90;;;;;;4244274;28;20044;-81
2023/10/18 07:15:49;;;;;;;20.25;10.00;;;6.20;99.90;;;;;;4256537;28;20047;-81
2023/10/18 07:17:51;;;;;;;18.00;10.43;;;5.70;99.90;;;;;;4244628;28;20114;-81
2023/10/18 07:19:58;;;;;;;23.35;10.73;;;5.90;99.90;;;;;;4244580;28;20036;-82
2023/10/18 07:22:06;;;;;;;20.40;9.13;;;6.40;99.90;;;;;;4246800;28;20062;-80
2023/10/18 07:24:09;;;;;;;20.38;9.25;;;5.90;99.90;;;;;;4255254;28;20507;-81
2023/10/18 07:26:14;;;;;;;19.67;9.60;;;5.90;99.90;;;;;;4241225;28;20058;-81
2023/10/18 07:28:19;;;;;;;21.92;10.23;;;6.00;99.90;;;;;;4223475;28;20127;-82
2023/10/18 07:30:20;;;;;;;21.33;9.82;;;6.20;99.90;;;;;;4242034;28;20122;-81
2023/10/18 07:32:23;;;;;;;17.63;9.48;;;6.10;99.90;;;;;;4241217;28;20051;-81
2023/10/18 07:34:31;;;;;;;20.02;9.73;;;6.60;99.90;;;;;;4241502;28;20540;-81
2023/10/18 07:36:37;;;;;;;17.88;8.88;;;6.20;99.90;;;;;;4238033;28;20169;-81
2023/10/18 07:38:39;;;;;;;19.63;9.90;;;6.20;99.90;;;;;;4243361;28;20108;-81
2023/10/18 07:40:42;;;;;;;21.10;8.35;;;6.20;99.90;;;;;;4237045;28;20044;-82
2023/10/18 07:42:44;;;;;;;19.33;9.93;;;7.30;99.90;;;;;;4243672;28;20265;-81
2023/10/18 07:44:52;;;;;;;22.50;10.35;;;6.80;99.90;;;;;;4235772;28;20122;-81
2023/10/18 07:46:53;;;;;;;21.98;9.52;;;7.20;99.90;;;;;;4226165;28;20040;-81
2023/10/18 07:49:04;;;;;;;20.55;9.35;;;6.50;99.90;;;;;;4217518;28;20116;-81
2023/10/18 07:51:23;;;;;;;19.77;9.00;;;7.30;99.90;;;;;;4241318;27;20056;-81
2023/10/18 07:53:24;;;;;;;18.05;9.07;;;7.10;99.90;;;;;;4229491;28;20410;-82
2023/10/18 07:55:27;;;;;;;19.00;8.85;;;7.10;99.90;;;;;;4243898;28;20028;-82
2023/10/18 07:57:34;;;;;;;19.23;9.63;;;7.30;99.90;;;;;;4247472;28;20058;-82
2023/10/18 07:59:45;;;;;;;18.20;9.15;;;6.80;99.90;;;;;;4238991;27;20168;-80
2023/10/18 08:01:52;;;;;;;17.17;9.15;;;6.90;99.90;;;;;;4244235;27;20411;-80
2023/10/18 08:03:53;;;;;;;21.92;9.30;;;7.00;99.90;;;;;;4243982;27;20483;-80
2023/10/18 08:05:55;;;;;;;19.05;9.55;;;7.30;99.90;;;;;;4246743;27;20100;-80
2023/10/18 08:07:57;;;;;;;18.10;8.40;;;7.20;99.90;;;;;;4223875;28;20078;-80
2023/10/18 08:10:00;;;;;;;18.98;9.32;;;7.90;99.90;;;;;;4238135;27;20044;-80
2023/10/18 08:12:08;;;;;;;19.10;9.70;;;7.70;99.90;;;;;;4248534;27;20046;-80
2023/10/18 08:14:27;;;;;;;17.40;8.10;;;7.60;99.90;;;;;;4239562;27;20464;-81
2023/10/18 08:16:42;;;;;;;;;;;7.80;99.90;;;;;;4250788;27;20038;-82
2023/10/18 08:18:43;;;;;;;18.73;10.57;;;8.00;99.90;;;;;;4239852;27;19934;-81
2023/10/18 08:22:53;;;;;;;17.30;9.00;;;8.90;99.90;;;;;;4239245;27;20138;-80
2023/10/18 08:24:53;;;;;;;18.27;8.13;;;9.40;99.90;;;;;;4239957;27;20059;-80
2023/10/18 08:27:00;;;;;;;17.20;8.95;;;9.60;99.90;;;;;;4249926;27;20036;-80
2023/10/18 08:29:03;;;;;;;15.82;7.97;;;9.80;99.90;;;;;;4243671;27;20088;-80
2023/10/18 08:31:26;;;;;;;16.33;8.57;;;10.00;99.90;;;;;;4224351;28;20055;-80
2023/10/18 08:33:27;;;;;;;19.33;9.35;;;10.00;99.90;;;;;;4242916;27;20058;-80
2023/10/18 08:35:28;;;;;;;16.73;8.57;;;10.00;99.90;;;;;;4239311;27;20514;-81
2023/10/18 08:37:28;;;;;;;13.50;7.15;;;10.00;99.90;;;;;;4242033;27;20048;-81
2023/10/18 08:39:30;;;;;;;15.50;7.45;;;10.10;99.90;;;;;;4245683;27;20403;-80
2023/10/18 08:41:36;;;;;;;13.13;7.40;;;10.10;99.90;;;;;;4248640;27;20111;-80
2023/10/18 08:44:02;;;;;;;14.00;7.75;;;10.00;99.90;;;;;;4246523;27;20473;-80
2023/10/18 08:46:05;;;;;;;14.02;7.05;;;10.00;99.90;;;;;;4249762;27;20530;-81
2023/10/18 08:48:10;;;;;;;16.00;7.20;;;10.00;99.90;;;;;;4237385;27;20039;-80
2023/10/18 08:50:12;;;;;;;15.82;7.93;;;10.00;99.90;;;;;;4237779;27;20058;-81
2023/10/18 08:52:20;;;;;;;12.85;7.72;;;9.90;99.90;;;;;;4232257;27;20048;-80
2023/10/18 08:54:22;;;;;;;12.88;7.05;;;9.90;99.90;;;;;;4244421;27;20035;-80
2023/10/18 08:56:29;;;;;;;14.25;6.72;;;9.80;99.90;;;;;;4248345;27;20047;-80
2023/10/18 08:58:30;;;;;;;14.32;6.53;;;9.80;99.90;;;;;;4234839;27;20112;-81
2023/10/18 09:02:39;;;;;;;13.18;7.13;;;10.00;99.90;;;;;;4235061;27;20130;-82
2023/10/18 09:04:44;;;;;;;12.80;6.88;;;9.80;99.90;;;;;;4245725;27;20480;-82
2023/10/18 09:06:45;;;;;;;13.45;7.13;;;9.80;99.90;;;;;;4236116;27;20413;-81
2023/10/18 09:08:50;;;;;;;16.00;8.43;;;9.90;99.90;;;;;;4219110;28;20059;-81
2023/10/18 09:10:55;;;;;;;13.48;7.35;;;10.00;99.90;;;;;;4243889;27;20381;-81
2023/10/18 09:15:25;;;;;;;9.82;6.53;;;10.20;99.90;;;;;;4238877;27;20491;-82
2023/10/18 09:17:23;;;;;;;14.15;7.03;;;10.20;99.90;;;;;;4239292;27;20044;-81
2023/10/18 09:19:27;;;;;;;15.20;6.82;;;10.30;99.90;;;;;;4224201;28;20178;-81
2023/10/18 09:21:36;;;;;;;12.98;6.93;;;10.30;99.90;;;;;;4220361;28;20104;-81
2023/10/18 09:23:37;;;;;;;11.50;6.35;;;10.40;99.90;;;;;;4243961;27;20039;-81
2023/10/18 09:25:49;;;;;;;11.57;5.97;;;10.40;99.90;;;;;;4218583;28;20052;-82
2023/10/18 09:28:08;;;;;;;11.32;6.35;;;10.30;99.90;;;;;;4246238;27;20036;-81
2023/10/18 09:30:13;;;;;;;;;;;10.40;99.90;;;;;;4233491;27;20071;-82
2023/10/18 09:32:32;;;;;;;13.07;6.25;;;10.40;99.90;;;;;;4232726;28;20035;-81
2023/10/18 09:34:38;;;;;;;13.40;6.20;;;10.50;99.90;;;;;;4248605;27;20047;-81
2023/10/18 09:36:52;;;;;;;14.15;6.53;;;10.60;99.90;;;;;;4245292;27;20046;-81
2023/10/18 09:38:57;;;;;;;10.20;6.30;;;10.70;99.90;;;;;;4237279;27;20051;-81
2023/10/18 09:40:59;;;;;;;14.77;7.60;;;10.70;99.90;;;;;;4242002;27;20522;-82
2023/10/18 09:43:00;;;;;;;12.80;7.55;;;10.80;99.90;;;;;;4238606;27;20487;-82
2023/10/18 09:45:02;;;;;;;13.77;6.88;;;10.80;99.90;;;;;;4241713;27;20500;-82
2023/10/18 09:47:05;;;;;;;10.63;6.00;;;10.80;99.90;;;;;;4238777;27;20057;-82
2023/10/18 09:49:20;;;;;;;10.55;5.90;;;10.90;99.90;;;;;;4241375;27;20051;-82
2023/10/18 09:51:23;;;;;;;11.35;6.90;;;10.90;99.90;;;;;;4241483;27;20050;-81
2023/10/18 09:53:26;;;;;;;10.55;6.40;;;10.90;99.90;;;;;;4238432;27;20051;-81
2023/10/18 09:55:28;;;;;;;12.82;6.70;;;10.80;99.90;;;;;;4242260;27;20118;-82
2023/10/18 09:57:35;;;;;;;11.75;7.15;;;11.10;99.90;;;;;;4243049;27;20490;-81
2023/10/18 09:59:47;;;;;;;12.00;6.55;;;11.30;99.90;;;;;;4240501;27;20047;-82
2023/10/18 10:03:58;;;;;;;10.68;6.22;;;11.50;99.90;;;;;;4243782;27;20058;-81
2023/10/18 10:06:00;;;;;;;10.13;6.05;;;11.60;99.90;;;;;;4230021;28;20474;-82
2023/10/18 10:08:07;;;;;;;12.65;7.25;;;11.60;99.90;;;;;;4233094;27;20452;-82
2023/10/18 10:10:09;;;;;;;16.63;6.70;;;11.70;99.90;;;;;;4231435;28;20040;-82
2023/10/18 10:12:11;;;;;;;10.02;6.20;;;11.70;99.90;;;;;;4248017;27;20119;-82
2023/10/18 10:14:16;;;;;;;11.02;5.43;;;11.90;99.90;;;;;;4231381;28;20051;-81
2023/10/18 10:16:24;;;;;;;11.27;6.63;;;12.00;99.90;;;;;;4231455;28;20476;-86
2023/10/18 10:18:30;;;;;;;10.15;5.78;;;12.10;99.90;;;;;;4246691;27;20092;-86
2023/10/18 10:20:35;;;;;;;16.00;5.60;;;12.20;99.90;;;;;;4215731;28;20504;-86
2023/10/18 10:22:43;;;;;;;10.30;5.55;;;12.30;99.90;;;;;;4226392;28;20032;-85
2023/10/18 10:24:51;;;;;;;9.05;5.20;;;12.30;99.90;;;;;;4235677;27;20043;-85
2023/10/18 10:26:51;;;;;;;10.18;5.63;;;12.40;99.90;;;;;;4242355;27;20052;-84
2023/10/18 10:31:20;;;;;;;9.45;5.68;;;12.40;99.90;;;;;;4240847;27;20096;-84
2023/10/18 10:33:23;;;;;;;11.38;5.00;;;12.30;99.90;;;;;;4241021;27;20407;-85
2023/10/18 10:35:24;;;;;;;13.70;5.85;;;12.40;99.90;;;;;;4248090;27;20051;-84
2023/10/18 10:37:28;;;;;;;10.45;6.03;;;12.50;99.90;;;;;;4248393;27;20111;-86
2023/10/18 10:39:32;;;;;;;8.90;5.10;;;12.60;99.90;;;;;;4248372;27;20047;-87
2023/10/18 10:41:33;;;;;;;8.63;4.90;;;12.50;99.90;;;;;;4229644;28;20130;-86
2023/10/18 10:44:11;;;;;;;8.38;5.07;;;12.50;99.90;;;;;;4246961;27;20055;-86
2023/10/18 10:46:37;;;;;;;9.77;5.20;;;12.40;99.90;;;;;;4247891;27;20506;-86
2023/10/18 10:48:45;;;;;;;10.55;5.30;;;12.50;99.90;;;;;;4243288;27;20047;-86
2023/10/18 10:50:50;;;;;;;9.23;4.90;;;12.50;99.90;;;;;;4248055;27;20063;-86
2023/10/18 10:52:51;;;;;;;11.40;5.28;;;12.50;99.90;;;;;;4248334;27;20039;-86
2023/10/18 10:55:17;;;;;;;8.80;4.82;;;12.60;99.90;;;;;;4248553;27;20050;-87
2023/10/18 10:57:19;;;;;;;9.10;5.30;;;12.60;99.90;;;;;;4229437;28;20070;-86
2023/10/18 10:59:22;;;;;;;10.15;4.88;;;12.80;99.90;;;;;;4230353;28;20075;-86
2023/10/18 11:01:44;;;;;;;12.15;5.03;;;12.70;99.90;;;;;;4248034;28;20040;-86
2023/10/18 11:03:54;;;;;;;8.25;4.80;;;12.80;99.90;;;;;;4248217;28;20111;-86
2023/10/18 11:05:58;;;;;;;10.23;4.88;;;12.90;99.90;;;;;;4248257;28;20483;-86
2023/10/18 11:08:01;;;;;;;13.35;5.32;;;13.00;99.90;;;;;;4247849;28;20118;-86
2023/10/18 11:10:14;;;;;;;7.15;4.43;;;12.90;99.90;;;;;;4230067;28;20465;-86
2023/10/18 11:12:15;;;;;;;10.55;5.38;;;13.00;99.90;;;;;;4248380;28;20559;-86
2023/10/18 11:14:18;;;;;;;9.32;5.57;;;13.00;99.90;;;;;;4248223;28;20047;-86
2023/10/18 11:16:22;;;;;;;7.78;5.07;;;13.10;99.90;;;;;;4247730;28;20040;-86
2023/10/18 11:18:34;;;;;;;9.15;5.30;;;13.10;99.90;;;;;;4248128;28;20495;-85